Time;durP1;ratioP1;P1;durP2;ratioP2;P2;SDS_P1;SDS_P2;PMS_P1;PMS_P2;Temp;Humidity;BMP_temperature;BMP_pressure;BME280_temperature;BME280_humidity;BME280_pressure;Samples;Min_cycle;Max_cycle;Signal;HPM_P1;HPM_P2
2021/04/20 00:01:13;;;;;;;4.70;2.40;;;20.60;38.10;;;;;;5053998;28;20033;-68
2021/04/20 00:03:38;;;;;;;5.60;2.70;;;20.50;38.10;;;;;;5053646;28;20068;-67
2021/04/20 00:06:08;;;;;;;4.60;2.17;;;20.50;38.10;;;;;;5054348;28;20120;-67
2021/04/20 00:08:34;;;;;;;6.03;2.80;;;20.60;38.10;;;;;;5054025;28;20056;-68
2021/04/20 00:10:59;;;;;;;5.07;2.45;;;20.50;38.10;;;;;;5053477;28;20017;-67
2021/04/20 00:13:25;;;;;;;5.40;2.58;;;20.50;38.10;;;;;;5053934;28;20032;-68
2021/04/20 00:15:51;;;;;;;4.97;2.35;;;20.60;38.10;;;;;;5054073;28;20127;-68
2021/04/20 00:18:16;;;;;;;5.88;2.97;;;20.50;38.10;;;;;;5053918;28;20075;-68
2021/04/20 00:20:42;;;;;;;7.22;2.92;;;20.50;38.10;;;;;;5053560;28;20029;-68
2021/04/20 00:23:08;;;;;;;6.95;2.80;;;20.50;38.10;;;;;;5053421;28;20045;-67
2021/04/20 00:25:34;;;;;;;6.35;3.10;;;20.50;38.00;;;;;;5053986;28;20021;-68
2021/04/20 00:28:00;;;;;;;7.30;3.58;;;20.50;38.10;;;;;;5053352;28;20029;-68
2021/04/20 00:30:25;;;;;;;6.30;3.15;;;20.50;38.00;;;;;;5053163;28;20114;-67
2021/04/20 00:32:51;;;;;;;6.78;3.28;;;20.50;38.10;;;;;;5053086;28;20051;-68
2021/04/20 00:35:17;;;;;;;4.75;2.97;;;20.50;38.00;;;;;;5053575;28;20087;-67
2021/04/20 00:37:43;;;;;;;6.28;3.40;;;20.50;38.00;;;;;;5053563;28;20031;-68
2021/04/20 00:40:10;;;;;;;6.28;2.80;;;20.50;38.10;;;;;;5053140;28;20056;-70
2021/04/20 00:42:56;;;;;;;6.85;3.38;;;20.50;38.00;;;;;;5053251;28;20021;-68
2021/04/20 00:45:26;;;;;;;5.82;3.45;;;20.50;38.10;;;;;;5053066;28;20388;-68
2021/04/20 00:47:52;;;;;;;6.43;3.35;;;20.50;38.10;;;;;;5053193;28;20031;-67
2021/04/20 00:50:23;;;;;;;5.82;3.15;;;20.50;38.00;;;;;;5053279;28;20037;-67
2021/04/20 00:52:49;;;;;;;5.28;3.17;;;20.50;38.00;;;;;;5053101;28;20025;-68
2021/04/20 00:55:15;;;;;;;7.50;3.30;;;20.50;38.00;;;;;;5053459;28;20082;-67
2021/04/20 00:57:40;;;;;;;5.60;3.10;;;20.50;38.00;;;;;;5053271;28;20124;-67
2021/04/20 01:00:11;;;;;;;5.78;2.90;;;20.50;38.00;;;;;;5053055;28;20021;-68
2021/04/20 01:02:37;;;;;;;6.32;3.47;;;20.50;38.10;;;;;;5053107;28;20029;-68
2021/04/20 01:05:07;;;;;;;4.72;2.75;;;20.50;38.00;;;;;;5052952;28;20051;-68
2021/04/20 01:07:33;;;;;;;6.68;3.20;;;20.50;38.00;;;;;;5053177;28;20428;-68
2021/04/20 01:09:58;;;;;;;5.72;3.17;;;20.50;38.00;;;;;;5052833;28;20032;-68
2021/04/20 01:12:26;;;;;;;5.65;3.38;;;20.50;38.00;;;;;;5053021;28;20048;-68
2021/04/20 01:14:51;;;;;;;8.35;3.75;;;20.50;38.00;;;;;;5053212;28;20041;-68
2021/04/20 01:17:27;;;;;;;5.57;3.25;;;20.50;38.00;;;;;;5053149;28;20029;-68
2021/04/20 01:19:58;;;;;;;5.72;2.78;;;20.50;38.00;;;;;;5053046;28;20088;-67
2021/04/20 01:22:25;;;;;;;5.88;3.22;;;20.50;38.00;;;;;;5052833;28;20057;-68
2021/04/20 01:24:51;;;;;;;5.22;2.85;;;20.50;38.00;;;;;;5053178;28;20037;-67
2021/04/20 01:27:17;;;;;;;6.07;3.45;;;20.50;38.00;;;;;;5053565;28;20025;-68
2021/04/20 01:29:43;;;;;;;5.10;2.78;;;20.50;38.00;;;;;;5053051;28;20036;-67
2021/04/20 01:32:08;;;;;;;6.43;3.47;;;20.50;38.00;;;;;;5051559;28;20051;-68
2021/04/20 01:34:34;;;;;;;5.80;3.50;;;20.50;37.90;;;;;;5052699;28;20096;-68
2021/04/20 01:36:59;;;;;;;5.63;3.38;;;20.50;38.00;;;;;;5052815;28;20396;-68
2021/04/20 01:39:25;;;;;;;6.10;3.10;;;20.50;38.00;;;;;;5053021;28;20059;-67
2021/04/20 01:41:51;;;;;;;6.63;3.50;;;20.50;38.00;;;;;;5053537;28;20040;-68
2021/04/20 01:44:17;;;;;;;6.95;4.13;;;20.50;38.00;;;;;;5056382;28;20095;-67
2021/04/20 01:46:43;;;;;;;7.32;3.92;;;20.50;38.00;;;;;;5056307;28;20029;-68
2021/04/20 01:49:09;;;;;;;5.82;3.60;;;20.50;38.00;;;;;;5056534;28;20052;-68
2021/04/20 01:51:34;;;;;;;6.43;3.63;;;20.50;37.90;;;;;;5056491;28;20044;-69
2021/04/20 01:54:00;;;;;;;6.72;3.10;;;20.50;37.90;;;;;;5071710;28;20135;-68
2021/04/20 01:56:28;;;;;;;6.00;3.15;;;20.40;38.00;;;;;;5056670;28;20017;-68
2021/04/20 01:58:54;;;;;;;5.70;3.03;;;20.40;37.90;;;;;;5056153;28;20358;-67
2021/04/20 02:01:25;;;;;;;6.30;3.65;;;20.40;38.00;;;;;;5056110;28;20405;-68
2021/04/20 02:03:51;;;;;;;6.47;3.22;;;20.40;37.90;;;;;;5056425;28;20047;-68
2021/04/20 02:06:19;;;;;;;6.05;3.40;;;20.40;37.90;;;;;;5056013;28;20083;-67
2021/04/20 02:08:47;;;;;;;6.43;3.35;;;20.40;37.90;;;;;;5055813;28;20028;-68
2021/04/20 02:11:15;;;;;;;6.38;3.63;;;20.40;37.90;;;;;;5056141;28;20056;-68
2021/04/20 02:13:41;;;;;;;6.55;3.45;;;20.40;37.90;;;;;;5055806;28;20032;-67
2021/04/20 02:16:08;;;;;;;5.63;3.22;;;20.40;37.90;;;;;;5055967;28;20028;-68
2021/04/20 02:18:38;;;;;;;6.88;3.70;;;20.40;37.90;;;;;;5054800;28;20056;-68
2021/04/20 02:21:04;;;;;;;6.40;3.35;;;20.50;37.90;;;;;;5056185;28;20017;-67
2021/04/20 02:23:30;;;;;;;5.50;3.25;;;20.40;37.90;;;;;;5055837;28;20049;-67
2021/04/20 02:26:03;;;;;;;6.88;3.25;;;20.40;37.90;;;;;;5055907;28;20035;-67
2021/04/20 02:28:31;;;;;;;5.88;3.42;;;20.40;37.90;;;;;;5055982;28;20052;-68
2021/04/20 02:31:03;;;;;;;7.03;3.42;;;20.40;37.90;;;;;;5055922;28;20017;-68
2021/04/20 02:33:29;;;;;;;6.43;3.55;;;20.40;37.90;;;;;;5056241;28;20065;-67
2021/04/20 02:35:57;;;;;;;5.63;3.00;;;20.40;37.90;;;;;;5055570;28;20025;-67
2021/04/20 02:38:23;;;;;;;6.90;3.60;;;20.40;37.90;;;;;;5055602;28;20063;-67
2021/04/20 02:40:53;;;;;;;6.18;3.33;;;20.40;37.90;;;;;;5055686;28;20032;-68
2021/04/20 02:43:20;;;;;;;6.60;3.72;;;20.40;37.90;;;;;;5055830;28;20029;-68
2021/04/20 02:45:47;;;;;;;6.57;3.50;;;20.40;37.90;;;;;;5060679;28;20025;-69
2021/04/20 02:48:13;;;;;;;6.07;3.30;;;20.40;37.90;;;;;;5059751;28;20361;-67
2021/04/20 02:50:41;;;;;;;6.85;3.10;;;20.40;37.90;;;;;;5056283;28;20039;-68
2021/04/20 02:53:07;;;;;;;6.30;3.17;;;20.40;37.90;;;;;;5055916;28;20036;-68
2021/04/20 02:55:32;;;;;;;7.10;3.63;;;20.40;37.80;;;;;;5055395;28;20021;-68
2021/04/20 02:57:59;;;;;;;5.90;3.05;;;20.40;37.90;;;;;;5055642;28;20424;-68
2021/04/20 03:00:25;;;;;;;6.28;3.33;;;20.40;37.80;;;;;;5054866;28;20032;-68
2021/04/20 03:03:00;;;;;;;6.05;3.70;;;20.40;37.90;;;;;;5055092;28;20036;-67
2021/04/20 03:05:27;;;;;;;7.55;3.53;;;20.40;37.80;;;;;;5055011;28;20040;-68
2021/04/20 03:07:53;;;;;;;5.97;3.40;;;20.30;37.80;;;;;;5054961;28;20113;-68
2021/04/20 03:10:20;;;;;;;7.55;3.55;;;20.40;37.80;;;;;;5054857;28;20461;-68
2021/04/20 03:12:46;;;;;;;6.05;3.45;;;20.30;37.80;;;;;;5054894;28;20021;-67
2021/04/20 03:15:15;;;;;;;7.90;3.83;;;20.40;37.80;;;;;;5054883;28;20392;-67
2021/04/20 03:17:43;;;;;;;5.82;3.58;;;20.40;37.80;;;;;;5054693;28;20468;-67
2021/04/20 03:20:10;;;;;;;6.03;3.53;;;20.30;37.80;;;;;;5054634;28;20025;-67
2021/04/20 03:22:38;;;;;;;6.57;3.60;;;20.30;37.80;;;;;;5054549;28;20074;-67
2021/04/20 03:25:11;;;;;;;6.47;3.88;;;20.40;37.80;;;;;;5054317;28;20033;-68
2021/04/20 03:27:41;;;;;;;7.13;3.63;;;20.30;37.80;;;;;;5054346;28;20484;-67
2021/04/20 03:30:08;;;;;;;6.55;3.50;;;20.30;37.80;;;;;;5054488;28;20029;-67
2021/04/20 03:32:36;;;;;;;6.72;3.60;;;20.30;37.80;;;;;;5054218;28;20021;-67
2021/04/20 03:35:07;;;;;;;6.65;3.50;;;20.30;37.80;;;;;;5054391;28;20024;-67
2021/04/20 03:37:44;;;;;;;5.47;3.25;;;20.30;37.80;;;;;;5054377;28;20465;-68
2021/04/20 03:40:13;;;;;;;7.70;4.07;;;20.30;37.80;;;;;;5054159;28;20385;-67
2021/04/20 03:42:56;;;;;;;6.80;4.00;;;20.30;37.80;;;;;;5054287;28;20099;-67
2021/04/20 03:45:26;;;;;;;6.13;3.50;;;20.30;37.80;;;;;;5054379;28;20036;-67
2021/04/20 03:47:56;;;;;;;7.25;3.88;;;20.30;37.80;;;;;;5054438;28;20028;-67
2021/04/20 03:50:34;;;;;;;6.05;3.53;;;20.30;37.80;;;;;;5053854;28;20409;-67
2021/04/20 03:53:06;;;;;;;6.13;3.63;;;20.30;37.80;;;;;;5053970;28;20033;-69
2021/04/20 03:55:34;;;;;;;8.10;3.60;;;20.30;37.80;;;;;;5053325;28;20031;-67
2021/04/20 03:58:01;;;;;;;6.38;4.00;;;20.30;37.80;;;;;;5054229;28;20112;-67
2021/04/20 04:00:28;;;;;;;7.85;4.20;;;20.30;37.80;;;;;;5054573;28;20017;-67
2021/04/20 04:02:55;;;;;;;5.57;3.22;;;20.30;37.80;;;;;;5054293;28;20124;-67
2021/04/20 04:05:29;;;;;;;5.90;3.13;;;20.30;37.80;;;;;;5052942;28;20082;-67
2021/04/20 04:08:00;;;;;;;6.15;2.90;;;20.30;37.80;;;;;;5052051;28;20433;-67
2021/04/20 04:10:28;;;;;;;7.20;4.07;;;20.30;37.80;;;;;;5053353;28;20029;-67
2021/04/20 04:13:00;;;;;;;5.65;3.63;;;20.30;37.80;;;;;;5053682;28;20074;-67
2021/04/20 04:15:26;;;;;;;6.32;3.33;;;20.30;37.70;;;;;;5053760;28;20104;-67
2021/04/20 04:17:53;;;;;;;6.35;3.40;;;20.30;37.70;;;;;;5053720;28;20036;-67
2021/04/20 04:20:19;;;;;;;6.55;3.58;;;20.30;37.70;;;;;;5053458;28;20021;-67
2021/04/20 04:23:00;;;;;;;6.47;3.38;;;20.40;37.70;;;;;;5053217;28;20052;-67
2021/04/20 04:25:38;;;;;;;5.35;3.22;;;20.40;37.60;;;;;;5053518;28;20380;-67
2021/04/20 04:28:06;;;;;;;6.38;3.72;;;20.40;37.60;;;;;;5053514;28;20036;-67
2021/04/20 04:30:32;;;;;;;6.28;3.55;;;20.40;37.60;;;;;;5053463;28;20021;-67
2021/04/20 04:33:00;;;;;;;6.72;3.55;;;20.40;37.60;;;;;;5053283;28;20039;-67
2021/04/20 04:35:27;;;;;;;6.13;3.65;;;20.50;37.60;;;;;;5053433;28;20074;-67
2021/04/20 04:37:53;;;;;;;6.82;3.53;;;20.50;37.50;;;;;;5068785;28;20432;-67
2021/04/20 04:40:20;;;;;;;5.72;3.50;;;20.50;37.50;;;;;;5053202;28;20044;-67
2021/04/20 04:42:46;;;;;;;5.25;3.05;;;20.50;37.50;;;;;;5053443;28;20032;-67
2021/04/20 04:45:13;;;;;;;6.18;3.40;;;20.50;37.50;;;;;;5053161;28;20025;-67
2021/04/20 04:47:39;;;;;;;7.68;4.80;;;20.50;37.50;;;;;;5053094;28;20543;-66
2021/04/20 04:50:07;;;;;;;6.22;3.63;;;20.50;37.50;;;;;;5053230;28;20028;-67
2021/04/20 04:52:33;;;;;;;6.97;3.38;;;20.50;37.40;;;;;;5052044;28;20028;-67
2021/04/20 04:54:59;;;;;;;6.22;3.28;;;20.50;37.40;;;;;;5053231;28;20044;-66
2021/04/20 04:57:27;;;;;;;6.03;3.38;;;20.50;37.50;;;;;;5052696;28;20028;-67
2021/04/20 05:00:02;;;;;;;6.88;3.28;;;20.50;37.40;;;;;;5052748;28;20327;-67
2021/04/20 05:02:28;;;;;;;6.38;3.42;;;20.50;37.50;;;;;;5053057;28;20059;-66
2021/04/20 05:05:06;;;;;;;6.03;3.22;;;20.50;37.50;;;;;;5053018;28;20041;-67
2021/04/20 05:07:32;;;;;;;6.55;3.58;;;20.50;37.50;;;;;;5053074;28;20032;-67
2021/04/20 05:10:05;;;;;;;6.63;3.50;;;20.50;37.50;;;;;;5053187;28;20021;-66
2021/04/20 05:12:32;;;;;;;6.70;3.65;;;20.50;37.50;;;;;;5053229;28;20021;-66
2021/04/20 05:15:25;;;;;;;7.70;3.85;;;20.60;37.40;;;;;;5052882;28;20377;-66
2021/04/20 05:17:51;;;;;;;7.63;4.00;;;20.50;37.50;;;;;;5053167;28;20033;-66
2021/04/20 05:20:19;;;;;;;6.35;3.60;;;20.50;37.40;;;;;;5056990;28;20036;-66
2021/04/20 05:22:46;;;;;;;6.80;3.30;;;20.50;37.40;;;;;;5056678;28;20055;-66
2021/04/20 05:25:14;;;;;;;6.03;3.95;;;20.50;37.50;;;;;;5055663;28;20037;-67
2021/04/20 05:27:40;;;;;;;7.63;4.00;;;20.50;37.40;;;;;;5056799;28;20017;-67
2021/04/20 05:30:08;;;;;;;6.55;3.80;;;20.50;37.40;;;;;;5056706;28;20021;-66
2021/04/20 05:32:39;;;;;;;6.38;3.50;;;20.60;37.40;;;;;;5056652;28;20048;-67
2021/04/20 05:35:05;;;;;;;7.93;3.67;;;20.60;37.40;;;;;;5055602;28;20059;-66
2021/04/20 05:37:36;;;;;;;8.40;3.50;;;20.60;37.40;;;;;;5056313;28;20025;-66
2021/04/20 05:40:04;;;;;;;6.15;3.85;;;20.50;37.40;;;;;;5056286;28;20052;-67
2021/04/20 05:42:30;;;;;;;8.00;4.00;;;20.60;37.40;;;;;;5056421;28;20025;-67
2021/04/20 05:44:58;;;;;;;7.28;3.17;;;20.60;37.40;;;;;;5056393;28;20041;-67
2021/04/20 05:47:23;;;;;;;6.72;3.95;;;20.60;37.40;;;;;;5056379;28;20108;-66
2021/04/20 05:50:01;;;;;;;8.18;4.25;;;20.60;37.40;;;;;;5056509;28;20067;-67
2021/04/20 05:52:26;;;;;;;6.45;3.47;;;20.60;37.40;;;;;;5056111;28;20021;-66
2021/04/20 05:54:59;;;;;;;6.38;3.50;;;20.60;37.40;;;;;;5056461;28;20449;-67
2021/04/20 05:57:25;;;;;;;6.25;3.30;;;20.60;37.40;;;;;;5056035;28;20036;-67
2021/04/20 05:59:56;;;;;;;5.85;3.58;;;20.60;37.40;;;;;;5056224;28;20032;-67
2021/04/20 06:02:23;;;;;;;6.13;3.58;;;20.60;37.40;;;;;;5056272;28;20028;-67
2021/04/20 06:04:57;;;;;;;6.72;3.80;;;20.60;37.30;;;;;;5055698;28;20045;-67
2021/04/20 06:07:24;;;;;;;5.70;3.45;;;20.60;37.30;;;;;;5055898;28;20132;-67
2021/04/20 06:09:50;;;;;;;6.60;4.07;;;20.60;37.30;;;;;;5055740;28;20432;-67
2021/04/20 06:12:15;;;;;;;6.93;3.90;;;20.60;37.30;;;;;;5056034;28;20025;-66
2021/04/20 06:14:42;;;;;;;5.72;3.47;;;20.60;37.40;;;;;;5055888;28;20059;-66
2021/04/20 06:17:12;;;;;;;6.07;3.65;;;20.70;37.30;;;;;;5055656;28;20052;-66
2021/04/20 06:19:38;;;;;;;6.03;3.80;;;20.70;37.30;;;;;;5055911;28;20055;-67
2021/04/20 06:22:09;;;;;;;6.90;3.67;;;20.70;37.30;;;;;;5055268;28;20489;-67
2021/04/20 06:24:35;;;;;;;6.82;3.80;;;20.70;37.30;;;;;;5055594;28;20124;-67
2021/04/20 06:27:00;;;;;;;5.60;3.00;;;20.70;37.30;;;;;;5055581;28;20203;-67
2021/04/20 06:29:29;;;;;;;6.97;3.35;;;20.70;37.30;;;;;;5054149;28;20124;-67
2021/04/20 06:31:55;;;;;;;6.72;3.65;;;20.70;37.30;;;;;;5054981;28;20021;-66
2021/04/20 06:34:22;;;;;;;5.28;3.00;;;20.80;37.30;;;;;;5055173;28;20013;-65
2021/04/20 06:36:48;;;;;;;12.95;7.60;;;20.90;37.00;;;;;;5062807;28;20116;-70
2021/04/20 06:39:14;;;;;;;10.23;4.80;;;20.60;37.40;;;;;;5057491;28;20108;-69
2021/04/20 06:41:41;;;;;;;7.50;3.50;;;20.60;37.50;;;;;;5074851;28;20028;-72
2021/04/20 06:44:14;;;;;;;6.55;3.88;;;20.60;37.50;;;;;;5081551;28;20101;-70
2021/04/20 06:46:48;;;;;;;8.45;3.80;;;20.70;37.40;;;;;;5056503;28;20021;-68
2021/04/20 06:49:23;;;;;;;6.70;3.67;;;20.80;37.40;;;;;;5079888;28;20032;-69
2021/04/20 06:51:50;;;;;;;8.10;3.92;;;20.80;37.30;;;;;;5082416;28;20112;-70
2021/04/20 06:54:39;;;;;;;8.02;4.07;;;20.80;37.30;;;;;;5073470;28;20047;-70
2021/04/20 06:57:37;;;;;;;6.72;3.63;;;20.80;37.30;;;;;;5073692;28;20033;-67
2021/04/20 07:00:16;;;;;;;5.75;3.38;;;20.80;37.30;;;;;;5061586;28;20033;-67
2021/04/20 07:03:04;;;;;;;6.47;3.38;;;20.80;37.20;;;;;;5072906;28;20123;-67
2021/04/20 07:05:29;;;;;;;6.68;4.00;;;20.90;37.20;;;;;;5073498;28;20058;-66
2021/04/20 07:08:24;;;;;;;6.45;3.55;;;20.90;37.20;;;;;;5074999;28;20029;-67
2021/04/20 07:10:50;;;;;;;7.30;3.58;;;20.90;37.20;;;;;;5074649;28;20082;-68
2021/04/20 07:13:22;;;;;;;8.25;3.60;;;20.90;37.20;;;;;;5078054;28;20043;-65
2021/04/20 07:16:04;;;;;;;6.43;3.53;;;21.00;37.30;;;;;;5073975;28;20056;-73
2021/04/20 07:18:56;;;;;;;8.95;4.32;;;21.00;37.20;;;;;;5073754;28;20123;-66
2021/04/20 07:22:01;;;;;;;8.18;4.30;;;21.00;37.20;;;;;;5090169;28;20032;-65
2021/04/20 07:24:41;;;;;;;6.13;3.40;;;21.00;37.30;;;;;;5093251;28;20508;-66
2021/04/20 07:27:10;;;;;;;7.00;3.75;;;21.00;37.20;;;;;;5093775;28;20047;-65
2021/04/20 07:29:39;;;;;;;7.25;3.35;;;21.00;37.20;;;;;;5088245;28;20428;-65
2021/04/20 07:32:44;;;;;;;7.78;3.78;;;21.00;37.20;;;;;;5072965;28;20028;-67
2021/04/20 07:35:19;;;;;;;9.43;3.72;;;21.00;37.30;;;;;;5074036;28;20039;-65
2021/04/20 07:38:10;;;;;;;8.48;3.83;;;21.10;37.20;;;;;;5073447;28;20024;-65
2021/04/20 07:40:58;;;;;;;9.27;3.88;;;21.10;37.20;;;;;;5072980;28;20099;-65
2021/04/20 07:43:47;;;;;;;10.68;3.88;;;21.10;37.20;;;;;;5074011;28;20119;-65
2021/04/20 07:46:38;;;;;;;6.25;3.75;;;21.10;37.20;;;;;;5074387;28;20516;-65
2021/04/20 07:49:13;;;;;;;11.55;3.70;;;21.10;37.20;;;;;;5073397;28;20028;-67
2021/04/20 07:51:56;;;;;;;7.78;3.30;;;21.10;37.20;;;;;;5073535;28;20024;-65
2021/04/20 07:54:36;;;;;;;7.90;4.03;;;21.10;37.20;;;;;;5064207;28;20025;-65
2021/04/20 07:57:25;;;;;;;6.57;3.40;;;21.10;37.20;;;;;;5053560;28;20452;-66
2021/04/20 07:59:53;;;;;;;7.68;3.22;;;21.10;37.10;;;;;;5053509;28;20092;-65
2021/04/20 08:02:37;;;;;;;6.82;3.45;;;21.10;37.20;;;;;;5053331;28;20017;-65
2021/04/20 08:05:36;;;;;;;7.05;3.60;;;21.20;37.10;;;;;;5053033;28;20156;-65
2021/04/20 08:08:12;;;;;;;8.63;3.53;;;21.10;37.10;;;;;;5053323;28;20484;-66
2021/04/20 08:10:59;;;;;;;8.25;3.10;;;21.20;37.10;;;;;;5053370;28;20017;-66
2021/04/20 08:13:31;;;;;;;5.80;3.22;;;21.10;37.10;;;;;;5053080;28;20052;-67
2021/04/20 08:16:01;;;;;;;7.47;3.25;;;21.10;37.10;;;;;;5052662;28;20032;-66
2021/04/20 08:18:42;;;;;;;8.20;3.08;;;21.20;37.00;;;;;;5053094;28;20048;-66
2021/04/20 08:21:11;;;;;;;7.25;3.58;;;21.20;37.10;;;;;;5052869;28;20179;-66
2021/04/20 08:23:44;;;;;;;6.63;3.30;;;21.20;37.00;;;;;;5054549;28;20041;-64
2021/04/20 08:26:14;;;;;;;4.85;2.95;;;21.20;37.00;;;;;;5052587;28;20029;-66
2021/04/20 08:29:02;;;;;;;6.90;3.20;;;21.20;37.00;;;;;;5053020;28;20051;-67
2021/04/20 08:31:33;;;;;;;7.63;3.03;;;21.20;37.00;;;;;;5053067;28;20053;-66
2021/04/20 08:34:05;;;;;;;6.63;3.13;;;21.20;37.00;;;;;;5053206;28;20363;-66
2021/04/20 08:36:37;;;;;;;8.02;3.53;;;21.20;37.00;;;;;;5053100;28;20029;-66
2021/04/20 08:39:17;;;;;;;5.95;3.10;;;21.20;36.90;;;;;;5053100;28;20025;-66
2021/04/20 08:41:54;;;;;;;6.78;3.15;;;21.20;36.90;;;;;;5053507;28;20166;-66
2021/04/20 08:44:32;;;;;;;5.47;2.95;;;21.20;36.90;;;;;;5056597;28;20563;-66
2021/04/20 08:47:11;;;;;;;5.22;2.95;;;21.30;36.90;;;;;;5055607;28;20013;-66
2021/04/20 08:49:43;;;;;;;6.60;3.30;;;21.30;36.90;;;;;;5053354;28;20473;-66
2021/04/20 08:52:11;;;;;;;7.85;3.00;;;21.30;36.90;;;;;;5055198;28;20050;-66
2021/04/20 08:54:50;;;;;;;6.80;3.22;;;21.30;36.90;;;;;;5059465;28;20021;-66
2021/04/20 08:57:26;;;;;;;6.50;2.95;;;21.30;36.90;;;;;;5059109;28;20021;-66
2021/04/20 09:00:10;;;;;;;6.18;3.08;;;21.30;36.90;;;;;;5059039;28;20021;-66
2021/04/20 09:03:00;;;;;;;5.70;3.38;;;21.30;36.80;;;;;;5059349;28;20013;-66
2021/04/20 09:05:50;;;;;;;6.00;3.35;;;21.30;36.90;;;;;;5059631;28;20044;-67
2021/04/20 09:08:33;;;;;;;5.18;2.90;;;21.30;36.90;;;;;;5061694;28;20033;-69
2021/04/20 09:11:11;;;;;;;5.97;3.17;;;21.30;36.80;;;;;;5060120;28;20031;-69
2021/04/20 09:13:54;;;;;;;7.28;3.28;;;21.40;36.80;;;;;;5060993;28;20021;-68
2021/04/20 09:16:24;;;;;;;5.57;3.03;;;21.40;36.80;;;;;;5056063;28;20077;-69
2021/04/20 09:18:52;;;;;;;6.55;3.58;;;21.40;36.70;;;;;;5068400;28;20016;-72
2021/04/20 09:21:42;;;;;;;5.97;3.20;;;21.40;36.80;;;;;;5070358;28;20071;-68
2021/04/20 09:24:16;;;;;;;5.55;3.28;;;21.40;36.70;;;;;;5060727;28;20024;-69
2021/04/20 09:26:52;;;;;;;5.60;2.90;;;21.40;36.70;;;;;;5067495;28;20107;-69
2021/04/20 09:29:29;;;;;;;7.65;2.90;;;21.50;36.70;;;;;;5068595;28;20364;-70
2021/04/20 09:31:58;;;;;;;8.80;3.35;;;21.50;36.70;;;;;;5068878;28;20032;-73
2021/04/20 09:34:34;;;;;;;5.40;3.20;;;21.50;36.70;;;;;;5068864;28;20527;-70
2021/04/20 09:37:02;;;;;;;5.05;2.63;;;21.50;36.70;;;;;;5067935;28;20294;-68
2021/04/20 09:39:30;;;;;;;6.32;3.25;;;21.50;36.80;;;;;;5068067;28;20377;-71
2021/04/20 09:42:01;;;;;;;8.32;3.75;;;21.50;36.80;;;;;;5067027;28;20027;-68
2021/04/20 09:44:41;;;;;;;6.70;2.97;;;21.50;36.80;;;;;;5067326;28;20041;-67
2021/04/20 09:47:22;;;;;;;7.10;3.50;;;21.50;36.80;;;;;;5066416;28;20020;-67
2021/04/20 09:50:02;;;;;;;7.28;3.33;;;21.50;36.80;;;;;;5065782;28;20099;-68
2021/04/20 09:53:01;;;;;;;5.90;2.92;;;21.50;36.80;;;;;;5074788;28;20032;-69
2021/04/20 09:55:33;;;;;;;6.80;3.20;;;21.50;36.80;;;;;;5069781;28;20028;-70
2021/04/20 09:58:00;;;;;;;6.95;2.63;;;21.60;36.90;;;;;;5077427;28;20578;-69
2021/04/20 10:00:26;;;;;;;7.55;3.20;;;21.50;36.80;;;;;;5059879;28;20044;-74
2021/04/20 10:03:18;;;;;;;5.22;2.55;;;21.60;36.90;;;;;;5056979;28;20040;-71
2021/04/20 10:05:45;;;;;;;5.65;2.90;;;21.60;36.80;;;;;;5054366;28;20029;-75
2021/04/20 10:08:35;;;;;;;7.55;3.00;;;21.60;36.90;;;;;;5053678;28;20392;-70
2021/04/20 10:11:09;;;;;;;5.97;2.90;;;21.60;36.80;;;;;;5059092;28;20032;-70
2021/04/20 10:14:05;;;;;;;7.28;2.60;;;21.60;36.80;;;;;;5054395;28;20029;-72
2021/04/20 10:17:10;;;;;;;6.18;2.85;;;21.70;36.90;;;;;;5060955;28;20477;-69
2021/04/20 10:19:52;;;;;;;6.53;3.50;;;21.70;36.90;;;;;;5054296;28;20044;-65
2021/04/20 10:22:45;;;;;;;7.68;2.80;;;21.70;36.80;;;;;;5054135;28;20057;-70
2021/04/20 10:25:42;;;;;;;6.72;3.10;;;21.60;36.90;;;;;;5055772;28;20036;-75
2021/04/20 10:28:14;;;;;;;5.93;2.83;;;21.50;37.10;;;;;;5069567;28;20039;-70
2021/04/20 10:30:43;;;;;;;5.38;2.97;;;21.70;37.00;;;;;;5073671;28;20408;-69
2021/04/20 10:33:11;;;;;;;6.50;3.05;;;21.60;37.00;;;;;;5074027;28;20044;-71
2021/04/20 10:35:38;;;;;;;6.03;2.85;;;21.70;37.00;;;;;;5075386;28;20093;-69
2021/04/20 10:38:12;;;;;;;7.85;2.85;;;21.70;36.90;;;;;;5072323;28;20471;-69
2021/04/20 10:40:41;;;;;;;7.88;3.00;;;21.70;36.90;;;;;;5057213;28;20118;-68
2021/04/20 10:43:10;;;;;;;4.88;2.85;;;21.80;36.80;;;;;;5057930;28;20024;-68
2021/04/20 10:45:36;;;;;;;5.68;2.72;;;21.80;36.80;;;;;;5074006;28;20068;-70
2021/04/20 10:48:03;;;;;;;5.25;2.95;;;21.80;36.80;;;;;;5073946;28;20506;-71
2021/04/20 10:50:32;;;;;;;5.82;3.10;;;21.80;36.80;;;;;;5071531;28;20028;-69
2021/04/20 10:53:05;;;;;;;6.93;3.30;;;21.90;36.70;;;;;;5064881;28;20021;-69
2021/04/20 10:55:34;;;;;;;5.05;2.72;;;22.00;36.70;;;;;;5053956;28;20415;-67
2021/04/20 10:58:02;;;;;;;7.63;2.80;;;22.00;36.70;;;;;;5067500;28;20016;-70
2021/04/20 11:00:29;;;;;;;7.78;2.90;;;22.00;36.70;;;;;;5073152;28;20063;-70
2021/04/20 11:02:58;;;;;;;4.90;2.67;;;22.00;36.70;;;;;;5073730;28;20102;-70
2021/04/20 11:05:25;;;;;;;5.88;2.72;;;22.00;36.70;;;;;;5074002;28;20392;-69
2021/04/20 11:07:52;;;;;;;7.43;2.80;;;21.90;36.80;;;;;;5068835;28;20031;-68
2021/04/20 11:10:19;;;;;;;5.45;3.03;;;21.90;36.90;;;;;;5071147;28;20511;-70
2021/04/20 11:12:47;;;;;;;6.47;2.95;;;21.90;36.80;;;;;;5073235;28;20020;-69
2021/04/20 11:15:21;;;;;;;5.38;2.80;;;21.90;36.80;;;;;;5072309;28;20024;-70
2021/04/20 11:17:56;;;;;;;5.07;2.88;;;21.90;36.90;;;;;;5073512;28;20032;-68
2021/04/20 11:20:30;;;;;;;6.35;2.90;;;21.90;36.90;;;;;;5071118;28;20032;-69
2021/04/20 11:22:56;;;;;;;;;;;22.00;36.80;;;;;;5071360;28;20044;-68
2021/04/20 11:25:27;;;;;;;5.95;2.70;;;22.00;36.80;;;;;;5066548;28;19919;-69
2021/04/20 11:27:58;;;;;;;5.43;2.83;;;22.00;36.80;;;;;;5073056;28;20411;-68
2021/04/20 11:30:33;;;;;;;7.50;2.97;;;21.90;36.90;;;;;;5072831;28;20063;-66
2021/04/20 11:33:05;;;;;;;5.38;3.03;;;21.90;36.90;;;;;;5073091;28;20380;-69
2021/04/20 11:35:30;;;;;;;7.03;3.30;;;21.90;37.00;;;;;;5072194;28;20154;-68
2021/04/20 11:38:00;;;;;;;4.35;2.67;;;21.90;37.00;;;;;;5073032;28;20124;-68
2021/04/20 11:40:33;;;;;;;5.28;2.58;;;21.90;36.80;;;;;;5072900;28;20355;-67
2021/04/20 11:43:01;;;;;;;5.33;2.93;;;21.90;36.90;;;;;;5072499;28;20141;-66
2021/04/20 11:45:28;;;;;;;4.80;2.90;;;21.90;36.90;;;;;;5069266;28;20278;-68
2021/04/20 11:48:14;;;;;;;5.72;2.90;;;21.90;36.90;;;;;;5052200;28;20653;-68
2021/04/20 11:50:58;;;;;;;5.78;3.22;;;22.00;36.80;;;;;;5052751;28;20557;-67
2021/04/20 11:53:25;;;;;;;5.32;2.78;;;22.00;36.80;;;;;;5057691;28;20028;-71
2021/04/20 11:55:59;;;;;;;6.22;3.05;;;22.00;36.80;;;;;;5072572;28;20025;-73
2021/04/20 11:58:35;;;;;;;10.63;3.95;;;22.00;36.70;;;;;;5065500;28;20051;-74
2021/04/20 12:01:21;;;;;;;6.53;3.33;;;21.90;36.70;;;;;;5066041;28;20036;-71
2021/04/20 12:03:51;;;;;;;8.43;3.50;;;22.00;36.90;;;;;;5072085;28;20044;-70
2021/04/20 12:06:17;;;;;;;4.53;2.50;;;22.10;36.70;;;;;;5072048;28;20039;-69
2021/04/20 12:08:44;;;;;;;4.90;2.72;;;22.00;36.70;;;;;;5073297;28;20016;-69
2021/04/20 12:11:11;;;;;;;4.53;2.40;;;22.10;36.70;;;;;;5072671;28;20035;-70
2021/04/20 12:13:40;;;;;;;6.18;2.67;;;22.20;36.60;;;;;;5072751;28;20020;-70
2021/04/20 12:16:08;;;;;;;5.95;2.95;;;22.20;36.60;;;;;;5066645;28;20029;-72
2021/04/20 12:18:35;;;;;;;7.63;2.90;;;22.00;36.60;;;;;;5054345;28;20024;-72
2021/04/20 12:21:08;;;;;;;5.90;2.97;;;22.10;36.80;;;;;;5069534;28;20439;-69
2021/04/20 12:23:37;;;;;;;7.28;2.65;;;22.10;36.70;;;;;;5071515;28;20055;-68
2021/04/20 12:26:04;;;;;;;6.75;2.70;;;22.10;36.80;;;;;;5069870;28;20032;-68
2021/04/20 12:28:32;;;;;;;4.68;2.53;;;22.10;36.70;;;;;;5069402;28;20035;-67
2021/04/20 12:30:58;;;;;;;7.03;2.80;;;22.10;36.80;;;;;;5070475;28;20545;-69
2021/04/20 12:33:29;;;;;;;5.47;3.05;;;22.00;36.80;;;;;;5070848;28;20188;-73
2021/04/20 12:35:55;;;;;;;7.82;3.53;;;22.10;36.70;;;;;;5072001;28;20028;-71
2021/04/20 12:38:23;;;;;;;5.43;2.90;;;22.10;36.70;;;;;;5071160;28;20020;-71
2021/04/20 12:40:52;;;;;;;10.73;2.88;;;22.00;36.90;;;;;;5050332;28;20028;-70
2021/04/20 12:43:20;;;;;;;5.30;2.78;;;22.00;36.90;;;;;;5051966;28;20064;-71
2021/04/20 12:45:46;;;;;;;4.78;2.47;;;22.00;37.00;;;;;;5051801;28;20032;-70
2021/04/20 12:48:16;;;;;;;6.07;2.97;;;22.00;37.00;;;;;;5052332;28;20452;-70
2021/04/20 12:50:50;;;;;;;5.63;2.38;;;22.00;37.00;;;;;;5052219;28;20025;-70
2021/04/20 12:53:20;;;;;;;6.97;2.85;;;22.00;37.00;;;;;;5052490;28;20088;-68
2021/04/20 12:55:47;;;;;;;5.07;2.42;;;22.00;37.10;;;;;;5051366;28;20063;-70
2021/04/20 12:58:18;;;;;;;4.68;2.65;;;22.00;37.20;;;;;;5066850;28;20029;-70
2021/04/20 13:00:46;;;;;;;5.95;2.33;;;22.00;37.20;;;;;;5069908;28;20388;-70
2021/04/20 13:03:14;;;;;;;5.57;2.80;;;22.00;37.20;;;;;;5054264;28;20090;-70
2021/04/20 13:05:41;;;;;;;5.20;2.63;;;22.00;37.20;;;;;;5067917;28;20098;-70
2021/04/20 13:08:12;;;;;;;5.97;2.78;;;22.00;37.30;;;;;;5051711;28;20140;-70
2021/04/20 13:10:43;;;;;;;5.35;2.85;;;21.90;37.30;;;;;;5052293;28;20029;-70